createdAt,value
2022-08-18T00:01:18.971Z,64.36
2022-08-18T00:03:56.295Z,64.53
2022-08-18T00:06:31.177Z,64.76
2022-08-18T00:09:03.413Z,64.52
2022-08-18T00:11:41.123Z,64.35
2022-08-18T00:14:22.578Z,64.38
2022-08-18T00:16:55.386Z,64.44
2022-08-18T00:19:45.561Z,64.47
2022-08-18T00:22:20.104Z,64.62
2022-08-18T00:24:52.363Z,64.63
2022-08-18T00:27:28.070Z,64.59
2022-08-18T00:30:01.271Z,64.69
2022-08-18T00:32:34.122Z,64.78
2022-08-18T00:35:08.973Z,64.83
2022-08-18T00:37:40.091Z,64.89
2022-08-18T00:40:13.542Z,65.08
2022-08-18T00:42:45.908Z,65.28
2022-08-18T00:45:19.555Z,65.31
2022-08-18T00:47:50.902Z,65.33
2022-08-18T00:50:23.695Z,65.36
2022-08-18T00:52:58.083Z,65.63
2022-08-18T00:55:31.140Z,65.64
2022-08-18T00:58:05.267Z,65.86
2022-08-18T01:00:38.202Z,65.89
2022-08-18T01:03:14.415Z,66.14
2022-08-18T01:05:47.711Z,66.31
2022-08-18T01:08:29.201Z,66.35
2022-08-18T01:11:03.021Z,66.63
2022-08-18T01:13:34.596Z,66.68
2022-08-18T01:16:26.478Z,66.67
2022-08-18T01:19:14.747Z,66.85
2022-08-18T01:21:54.015Z,66.82
2022-08-18T01:24:47.167Z,67.03
2022-08-18T01:27:19.358Z,66.83
2022-08-18T01:29:51.286Z,66.91
2022-08-18T01:32:23.766Z,66.79
2022-08-18T01:34:55.307Z,66.78
2022-08-18T01:37:26.633Z,66.81
2022-08-18T01:41:24.886Z,66.81
2022-08-18T01:42:48.989Z,67.02
2022-08-18T01:45:21.706Z,66.90
2022-08-18T01:47:52.866Z,66.99
2022-08-18T01:50:24.126Z,67.25
2022-08-18T01:52:55.541Z,67.28
2022-08-18T01:55:28.757Z,67.48
2022-08-18T01:58:01.856Z,67.60
2022-08-18T02:00:33.351Z,67.83
2022-08-18T02:03:08.754Z,67.85
2022-08-18T02:05:41.308Z,67.99
2022-08-18T02:08:15.753Z,67.94
2022-08-18T02:10:47.117Z,68.25
2022-08-18T02:13:18.633Z,68.47
2022-08-18T02:15:49.816Z,68.38
2022-08-18T02:18:41.524Z,68.71
2022-08-18T02:21:14.325Z,68.75
2022-08-18T02:23:53.967Z,68.71
2022-08-18T02:26:25.541Z,68.83
2022-08-18T02:28:57.079Z,69.08
2022-08-18T02:31:28.422Z,69.08
2022-08-18T02:33:59.835Z,69.20
2022-08-18T02:36:30.990Z,69.26
2022-08-18T02:39:02.156Z,69.30
2022-08-18T02:41:33.448Z,69.26
2022-08-18T02:44:05.250Z,69.20
2022-08-18T02:46:36.725Z,69.23
2022-08-18T02:49:08.405Z,69.19
2022-08-18T02:51:39.750Z,69.32
2022-08-18T02:54:11.881Z,69.57
2022-08-18T02:56:45.945Z,69.60
2022-08-18T02:59:18.393Z,69.71
2022-08-18T03:01:50.550Z,69.73
2022-08-18T03:04:28.681Z,69.77
2022-08-18T03:07:01.956Z,69.89
2022-08-18T03:09:34.732Z,69.86
2022-08-18T03:12:07.802Z,69.95
2022-08-18T03:14:40.301Z,70.01
2022-08-18T03:17:11.843Z,70.23
2022-08-18T03:19:46.768Z,70.10
2022-08-18T03:22:28.737Z,70.00
2022-08-18T03:25:02.261Z,70.18
2022-08-18T03:27:33.755Z,70.17
2022-08-18T03:30:05.850Z,70.35
2022-08-18T03:32:45.616Z,70.56
2022-08-18T03:35:17.592Z,70.60
2022-08-18T03:37:48.781Z,70.59
2022-08-18T03:40:20.183Z,70.46
2022-08-18T03:42:51.524Z,70.46
2022-08-18T03:45:23.569Z,70.53
2022-08-18T03:47:54.826Z,70.69
2022-08-18T03:50:26.662Z,70.58
2022-08-18T03:52:59.800Z,70.46
2022-08-18T03:55:31.055Z,70.38
2022-08-18T03:58:03.745Z,70.33
2022-08-18T04:00:35.024Z,70.23
2022-08-18T04:03:06.354Z,70.12
2022-08-18T04:05:40.594Z,70.23
2022-08-18T04:08:13.702Z,70.15
2022-08-18T04:10:47.155Z,70.22
2022-08-18T04:13:18.485Z,70.23
2022-08-18T04:15:49.723Z,70.25
2022-08-18T04:18:20.896Z,70.31
2022-08-18T04:20:59.861Z,70.36
2022-08-18T04:23:31.864Z,70.41
2022-08-18T04:26:19.131Z,70.25
2022-08-18T04:28:50.555Z,70.42
2022-08-18T04:31:24.726Z,70.47
2022-08-18T04:33:57.237Z,70.57
2022-08-18T04:36:28.822Z,70.55
2022-08-18T04:39:00.305Z,70.73
2022-08-18T04:41:31.596Z,70.79
2022-08-18T04:44:03.870Z,70.72
2022-08-18T04:46:36.894Z,70.70
2022-08-18T04:49:09.562Z,70.79
2022-08-18T04:52:36.966Z,70.62
2022-08-18T04:54:38.486Z,70.65
2022-08-18T04:57:10.814Z,70.57
2022-08-18T04:59:46.021Z,70.48
2022-08-18T05:02:18.835Z,70.40
2022-08-18T05:04:50.254Z,70.10
2022-08-18T05:07:23.051Z,70.07
2022-08-18T05:09:55.419Z,70.02
2022-08-18T05:12:27.117Z,70.27
2022-08-18T05:14:58.369Z,70.59
2022-08-18T05:17:31.082Z,68.80
2022-08-18T05:20:04.119Z,67.33
2022-08-18T05:22:41.055Z,67.21
2022-08-18T05:25:13.855Z,68.53
2022-08-18T05:27:45.522Z,68.04
2022-08-18T05:30:17.087Z,66.27
2022-08-18T05:32:50.508Z,63.82
2022-08-18T05:35:24.820Z,61.12
2022-08-18T05:38:09.381Z,58.64
2022-08-18T05:40:40.428Z,56.62
2022-08-18T05:43:12.960Z,55.55
2022-08-18T05:45:44.733Z,54.73
2022-08-18T05:48:17.414Z,53.66
2022-08-18T05:50:49.061Z,52.65
2022-08-18T05:53:40.560Z,51.88
2022-08-18T05:56:30.640Z,49.93
2022-08-18T05:59:02.533Z,48.48
2022-08-18T06:01:38.599Z,46.25
2022-08-18T06:04:13.665Z,46.94
2022-08-18T06:06:47.917Z,47.35
2022-08-18T06:09:23.314Z,48.12
2022-08-18T06:11:55.858Z,48.75
2022-08-18T06:14:27.381Z,49.44
2022-08-18T06:17:02.743Z,49.85
2022-08-18T06:19:41.762Z,50.23
2022-08-18T06:22:19.288Z,50.34
2022-08-18T06:24:53.069Z,50.81
2022-08-18T06:27:31.467Z,51.04
2022-08-18T06:30:09.126Z,51.58
2022-08-18T06:32:53.300Z,51.79
2022-08-18T06:35:30.706Z,52.71
2022-08-18T06:38:24.189Z,53.15
2022-08-18T06:41:02.353Z,50.24
2022-08-18T06:43:35.623Z,47.95
2022-08-18T06:46:10.533Z,46.13
2022-08-18T06:48:46.127Z,44.56
2022-08-18T06:51:20.134Z,42.52
2022-08-18T06:53:56.418Z,40.42
2022-08-18T06:56:30.026Z,38.81
2022-08-18T06:59:14.994Z,37.60
2022-08-18T07:01:47.937Z,36.79
2022-08-18T07:04:38.435Z,35.63
2022-08-18T07:07:20.831Z,34.11
2022-08-18T07:09:52.099Z,33.55
2022-08-18T07:12:30.483Z,33.42
2022-08-18T07:15:06.114Z,33.47
2022-08-18T07:17:52.870Z,33.68
2022-08-18T07:20:25.671Z,32.72
2022-08-18T07:23:00.017Z,32.49
2022-08-18T07:25:33.586Z,31.95
2022-08-18T07:28:04.739Z,32.01
2022-08-18T07:30:37.584Z,30.92
2022-08-18T07:33:12.953Z,30.56
2022-08-18T07:35:46.961Z,29.85
2022-08-18T07:41:16.226Z,31.97
2022-08-18T07:43:54.398Z,31.43
2022-08-18T07:46:33.483Z,30.73
2022-08-18T07:49:06.757Z,30.77
2022-08-18T07:51:45.664Z,30.51
2022-08-18T07:54:47.603Z,30.61
2022-08-18T07:57:20.081Z,31.68
2022-08-18T07:59:55.619Z,32.38
2022-08-18T08:02:34.316Z,33.16
2022-08-18T08:05:11.596Z,33.60
2022-08-18T08:07:47.605Z,34.11
2022-08-18T08:10:28.978Z,35.10
2022-08-18T08:13:09.846Z,36.35
2022-08-18T08:15:49.145Z,36.85
2022-08-18T08:18:26.424Z,37.22
2022-08-18T08:20:58.962Z,37.31
2022-08-18T08:23:32.327Z,37.86
2022-08-18T08:26:13.769Z,38.76
2022-08-18T08:28:55.238Z,38.98
2022-08-18T08:31:37.240Z,39.27
2022-08-18T08:34:12.646Z,39.51
2022-08-18T08:36:46.326Z,39.34
2022-08-18T08:39:20.248Z,39.79
2022-08-18T08:41:57.590Z,39.05
2022-08-18T08:44:59.105Z,38.45
2022-08-18T08:47:34.207Z,39.59
2022-08-18T08:50:08.370Z,39.69
2022-08-18T08:52:42.121Z,39.77
2022-08-18T08:55:17.775Z,39.72
2022-08-18T08:57:51.653Z,38.88
2022-08-18T09:00:23.288Z,39.23
2022-08-18T09:03:02.647Z,40.11
2022-08-18T09:05:37.652Z,40.52
2022-08-18T09:08:15.984Z,40.82
2022-08-18T09:11:09.434Z,40.97
2022-08-18T09:13:53.841Z,40.40
2022-08-18T09:16:35.758Z,40.43
2022-08-18T09:19:19.134Z,40.19
2022-08-18T09:21:54.127Z,39.74
2022-08-18T09:24:27.554Z,40.12
2022-08-18T09:27:14.032Z,40.57
2022-08-18T09:29:52.881Z,40.79
2022-08-18T09:32:40.530Z,41.09
2022-08-18T09:35:26.612Z,41.38
2022-08-18T09:38:20.577Z,41.57
2022-08-18T09:41:10.693Z,41.37
2022-08-18T09:43:56.222Z,41.28
2022-08-18T09:46:40.882Z,41.90
2022-08-18T09:49:28.363Z,41.91
2022-08-18T09:52:02.358Z,42.20
2022-08-18T09:54:35.177Z,42.62
2022-08-18T09:57:20.810Z,42.32
2022-08-18T09:59:57.098Z,42.37
2022-08-18T10:02:48.588Z,41.41
2022-08-18T10:05:29.751Z,41.55
2022-08-18T10:08:15.007Z,41.81
2022-08-18T10:11:01.202Z,41.69
2022-08-18T10:17:13.104Z,42.11
2022-08-18T10:19:43.382Z,42.06
2022-08-18T10:22:36.141Z,41.84
2022-08-18T10:25:22.190Z,41.99
2022-08-18T10:27:56.943Z,41.85
2022-08-18T10:30:56.883Z,41.14
2022-08-18T10:33:45.500Z,41.69
2022-08-18T10:36:34.097Z,41.65
2022-08-18T10:39:08.028Z,41.81
2022-08-18T10:44:33.000Z,42.64
2022-08-18T10:47:12.018Z,42.44
2022-08-18T10:49:49.523Z,42.71
2022-08-18T10:52:35.286Z,43.02
2022-08-18T10:55:24.736Z,43.17
2022-08-18T10:58:24.017Z,42.95
2022-08-18T11:01:07.800Z,42.62
2022-08-18T11:04:13.850Z,42.99
2022-08-18T11:06:49.298Z,42.94
2022-08-18T11:09:27.397Z,43.36
2022-08-18T11:12:01.713Z,43.20
2022-08-18T11:14:52.840Z,43.08
2022-08-18T11:17:31.826Z,39.98
2022-08-18T11:20:04.318Z,39.74
2022-08-18T11:22:36.477Z,39.49
2022-08-18T11:25:22.578Z,39.70
2022-08-18T11:27:53.899Z,39.54
2022-08-18T11:30:30.715Z,39.10
2022-08-18T11:33:03.568Z,38.75
2022-08-18T11:35:36.828Z,39.49
2022-08-18T11:38:21.096Z,39.29
2022-08-18T11:41:13.036Z,38.68
2022-08-18T11:46:41.101Z,38.87
2022-08-18T11:49:24.118Z,39.26
2022-08-18T11:52:29.489Z,39.75
2022-08-18T11:55:14.555Z,39.90
2022-08-18T11:57:58.835Z,40.47
2022-08-18T12:00:42.589Z,40.52
2022-08-18T12:03:21.203Z,40.97
2022-08-18T12:05:56.351Z,40.92
2022-08-18T12:08:56.139Z,41.00
2022-08-18T12:11:27.069Z,40.50
2022-08-18T12:14:30.322Z,41.26
2022-08-18T12:16:55.156Z,41.76
2022-08-18T12:19:28.564Z,41.83
2022-08-18T12:22:01.970Z,41.61
2022-08-18T12:24:39.231Z,41.74
2022-08-18T12:27:20.713Z,41.32
2022-08-18T12:29:53.843Z,40.28
2022-08-18T12:32:56.145Z,39.59
2022-08-18T12:35:21.694Z,39.40
2022-08-18T12:37:59.727Z,39.68
2022-08-18T12:40:34.760Z,40.12
2022-08-18T12:43:06.052Z,40.10
2022-08-18T12:45:38.196Z,40.07
2022-08-18T12:48:10.871Z,39.88
2022-08-18T12:53:38.065Z,39.23
2022-08-18T12:56:26.547Z,39.95
2022-08-18T12:58:59.738Z,39.92
2022-08-18T13:01:31.032Z,38.18
2022-08-18T13:04:11.088Z,38.16
2022-08-18T13:06:59.303Z,37.48
2022-08-18T13:09:34.185Z,37.61
2022-08-18T13:12:16.149Z,38.07
2022-08-18T13:14:48.220Z,38.46
2022-08-18T13:17:30.075Z,38.53
2022-08-18T13:20:08.713Z,38.69
2022-08-18T13:22:41.291Z,39.24
2022-08-18T13:25:33.202Z,39.08
2022-08-18T13:28:05.959Z,39.57
2022-08-18T13:30:37.321Z,39.30
2022-08-18T13:33:35.158Z,39.45
2022-08-18T13:36:01.432Z,39.61
2022-08-18T13:38:33.060Z,39.66
2022-08-18T13:41:08.702Z,39.37
2022-08-18T13:43:47.880Z,39.64
2022-08-18T13:46:30.112Z,39.76
2022-08-18T13:49:03.294Z,39.55
2022-08-18T13:51:34.728Z,39.65
2022-08-18T13:54:27.005Z,39.61
2022-08-18T13:56:58.074Z,39.60
2022-08-18T13:59:31.947Z,39.52
2022-08-18T14:02:03.831Z,40.15
2022-08-18T14:04:36.556Z,40.05
2022-08-18T14:07:11.722Z,40.16
2022-08-18T14:09:43.717Z,40.40
2022-08-18T14:12:22.394Z,39.87
2022-08-18T14:14:55.016Z,40.15
2022-08-18T14:17:27.014Z,39.84
2022-08-18T14:20:27.231Z,40.44
2022-08-18T14:23:21.635Z,40.80
2022-08-18T14:26:25.162Z,40.59
2022-08-18T14:28:58.121Z,40.73
2022-08-18T14:31:29.241Z,41.09
2022-08-18T14:34:05.284Z,41.25
2022-08-18T14:36:36.328Z,41.22
2022-08-18T14:39:08.466Z,41.34
2022-08-18T14:41:54.688Z,41.28
2022-08-18T14:44:32.261Z,41.32
2022-08-18T14:47:03.632Z,41.62
2022-08-18T14:49:36.474Z,41.60
2022-08-18T14:52:19.093Z,41.86
2022-08-18T14:54:51.090Z,41.84
2022-08-18T14:57:22.467Z,41.80
2022-08-18T14:59:57.228Z,41.91
2022-08-18T15:02:28.681Z,42.04
2022-08-18T15:04:59.905Z,42.00
2022-08-18T15:07:32.904Z,42.36
2022-08-18T15:10:14.795Z,42.43
2022-08-18T15:12:49.074Z,42.14
2022-08-18T15:15:22.472Z,42.02
2022-08-18T15:17:54.850Z,42.29
2022-08-18T15:20:29.593Z,42.53
2022-08-18T15:23:24.913Z,42.58
2022-08-18T15:26:00.002Z,42.14
2022-08-18T15:28:31.203Z,42.54
2022-08-18T15:31:17.808Z,42.86
2022-08-18T15:33:50.217Z,43.03
2022-08-18T15:36:29.149Z,43.08
2022-08-18T15:39:00.939Z,43.13
2022-08-18T15:41:34.747Z,43.15
2022-08-18T15:44:07.873Z,43.12
2022-08-18T15:46:39.920Z,43.14
2022-08-18T15:49:14.874Z,43.31
2022-08-18T15:51:46.743Z,42.97
2022-08-18T15:54:17.863Z,43.56
2022-08-18T15:56:57.824Z,43.18
2022-08-18T15:59:34.359Z,43.19
2022-08-18T16:02:17.989Z,43.13
2022-08-18T16:04:50.641Z,43.38
2022-08-18T16:07:25.086Z,43.53
2022-08-18T16:10:04.249Z,43.54
2022-08-18T16:12:35.345Z,43.35
2022-08-18T16:15:07.922Z,43.18
2022-08-18T16:17:39.241Z,43.24
2022-08-18T16:20:11.254Z,43.25
2022-08-18T16:22:42.739Z,43.72
2022-08-18T16:25:13.752Z,43.77
2022-08-18T16:27:45.223Z,43.63
2022-08-18T16:30:19.633Z,43.91
2022-08-18T16:32:50.986Z,43.80
2022-08-18T16:35:22.679Z,43.95
2022-08-18T16:37:53.867Z,43.85
2022-08-18T16:40:28.035Z,43.76
2022-08-18T16:43:00.354Z,43.82
2022-08-18T16:45:33.817Z,43.79
2022-08-18T16:48:08.417Z,44.06
2022-08-18T16:50:42.672Z,44.15
2022-08-18T16:53:13.678Z,44.34
2022-08-18T16:55:45.352Z,44.20
2022-08-18T16:58:33.840Z,44.40
2022-08-18T17:01:22.110Z,44.55
2022-08-18T17:04:13.600Z,44.56
2022-08-18T17:06:52.138Z,44.63
2022-08-18T17:09:24.067Z,44.73
2022-08-18T17:11:55.427Z,44.81
2022-08-18T17:14:28.030Z,45.15
2022-08-18T17:17:00.536Z,45.55
2022-08-18T17:19:33.914Z,45.62
2022-08-18T17:22:06.423Z,45.74
2022-08-18T17:24:38.026Z,45.68
2022-08-18T17:27:26.400Z,45.53
2022-08-18T17:30:03.702Z,45.73
2022-08-18T17:35:16.233Z,45.60
2022-08-18T17:37:52.525Z,45.83
2022-08-18T17:40:28.655Z,45.88
2022-08-18T17:43:00.668Z,46.03
2022-08-18T17:45:36.321Z,46.04
2022-08-18T17:48:12.082Z,46.14
2022-08-18T17:51:02.927Z,46.24
2022-08-18T17:53:36.511Z,46.81
2022-08-18T17:56:09.281Z,47.00
2022-08-18T17:58:42.467Z,47.16
2022-08-18T18:01:14.013Z,47.41
2022-08-18T18:03:45.973Z,47.65
2022-08-18T18:06:20.117Z,47.88
2022-08-18T18:08:57.417Z,47.69
2022-08-18T18:11:31.403Z,48.16
2022-08-18T18:14:24.485Z,48.24
2022-08-18T18:17:03.524Z,48.47
2022-08-18T18:19:35.285Z,48.65
2022-08-18T18:22:08.625Z,48.82
2022-08-18T18:24:40.702Z,49.20
2022-08-18T18:27:26.881Z,49.37
2022-08-18T18:29:59.658Z,49.48
2022-08-18T18:32:33.239Z,49.65
2022-08-18T18:35:09.910Z,49.69
2022-08-18T18:37:47.085Z,49.88
2022-08-18T18:40:23.595Z,49.76
2022-08-18T18:42:55.283Z,49.82
2022-08-18T18:45:28.891Z,50.37
2022-08-18T18:48:07.206Z,50.48
2022-08-18T18:50:52.867Z,50.57
2022-08-18T18:53:31.639Z,50.90
2022-08-18T18:56:12.569Z,50.98
2022-08-18T18:58:49.018Z,51.32
2022-08-18T19:01:26.278Z,51.72
2022-08-18T19:04:00.593Z,51.80
2022-08-18T19:06:32.952Z,51.76
2022-08-18T19:09:08.775Z,51.59
2022-08-18T19:11:44.153Z,51.68
2022-08-18T19:14:18.682Z,51.65
2022-08-18T19:16:52.936Z,51.61
2022-08-18T19:19:37.350Z,51.84
2022-08-18T19:22:15.955Z,51.94
2022-08-18T19:24:54.624Z,52.26
2022-08-18T19:27:30.511Z,52.39
2022-08-18T19:30:06.132Z,52.60
2022-08-18T19:32:39.708Z,52.57
2022-08-18T19:35:13.911Z,52.82
2022-08-18T19:38:05.271Z,52.90
2022-08-18T19:40:40.494Z,52.99
2022-08-18T19:43:15.964Z,52.99
2022-08-18T19:45:51.325Z,53.36
2022-08-18T19:48:27.833Z,53.60
2022-08-18T19:51:05.312Z,53.82
2022-08-18T19:53:52.823Z,54.32
2022-08-18T19:56:34.229Z,54.73
2022-08-18T19:59:19.471Z,54.73
2022-08-18T20:02:11.666Z,55.02
2022-08-18T20:04:52.517Z,55.46
2022-08-18T20:07:46.843Z,55.28
2022-08-18T20:10:27.884Z,55.56
2022-08-18T20:13:10.328Z,55.57
2022-08-18T20:15:59.060Z,55.57
2022-08-18T20:18:35.828Z,55.77
2022-08-18T20:21:36.854Z,55.81
2022-08-18T20:24:34.678Z,56.01
2022-08-18T20:27:34.165Z,55.89
2022-08-18T20:30:20.331Z,55.66
2022-08-18T20:33:05.793Z,55.79
2022-08-18T20:35:41.215Z,55.77
2022-08-18T20:38:22.667Z,55.76
2022-08-18T20:40:55.570Z,55.86
2022-08-18T20:43:28.280Z,55.65
2022-08-18T20:46:07.060Z,55.61
2022-08-18T20:48:44.177Z,55.69
2022-08-18T20:51:16.827Z,55.72
2022-08-18T20:53:59.450Z,55.96
2022-08-18T20:56:43.273Z,56.06
2022-08-18T20:59:18.785Z,56.38
2022-08-18T21:01:56.770Z,56.49
2022-08-18T21:04:42.473Z,56.65
2022-08-18T21:07:19.576Z,56.78
2022-08-18T21:10:12.282Z,56.93
2022-08-18T21:12:52.113Z,56.91
2022-08-18T21:15:25.440Z,57.04
2022-08-18T21:18:01.001Z,56.85
2022-08-18T21:20:32.651Z,56.61
2022-08-18T21:23:05.357Z,56.69
2022-08-18T21:25:36.454Z,56.68
2022-08-18T21:28:08.126Z,56.60
2022-08-18T21:30:39.955Z,56.49
2022-08-18T21:33:23.005Z,56.99
2022-08-18T21:35:54.295Z,57.07
2022-08-18T21:38:28.162Z,57.32
2022-08-18T21:41:00.541Z,57.39
2022-08-18T21:43:49.278Z,57.65
2022-08-18T21:46:28.029Z,57.30
2022-08-18T21:49:00.660Z,57.44
2022-08-18T21:51:33.275Z,57.20
2022-08-18T21:54:04.251Z,56.98
2022-08-18T21:56:36.424Z,56.77
2022-08-18T21:59:10.939Z,56.67
2022-08-18T22:01:49.640Z,56.58
2022-08-18T22:04:27.735Z,56.49
2022-08-18T22:07:00.670Z,56.34
2022-08-18T22:09:50.163Z,56.48
2022-08-18T22:12:42.238Z,56.13
2022-08-18T22:15:14.716Z,56.25
2022-08-18T22:17:59.552Z,56.42
2022-08-18T22:20:38.619Z,56.59
2022-08-18T22:23:36.241Z,56.63
2022-08-18T22:26:13.951Z,56.71
2022-08-18T22:28:49.834Z,56.42
2022-08-18T22:31:22.144Z,56.72
2022-08-18T22:33:53.997Z,56.69
2022-08-18T22:36:27.848Z,56.31
2022-08-18T22:38:58.976Z,56.52
2022-08-18T22:41:30.125Z,56.39
2022-08-18T22:44:02.628Z,56.31
2022-08-18T22:46:34.162Z,56.34
2022-08-18T22:49:05.349Z,56.36
2022-08-18T22:51:37.560Z,56.33
2022-08-18T22:54:11.322Z,56.45
2022-08-18T22:56:56.383Z,56.29
2022-08-18T22:59:29.300Z,56.61
2022-08-18T23:02:03.587Z,56.27
2022-08-18T23:04:34.876Z,56.35
2022-08-18T23:07:06.231Z,56.26
2022-08-18T23:09:37.639Z,56.24
2022-08-18T23:12:10.841Z,56.36
2022-08-18T23:14:46.376Z,56.43
2022-08-18T23:17:17.598Z,56.70
2022-08-18T23:19:48.652Z,56.57
2022-08-18T23:22:23.377Z,56.66
2022-08-18T23:24:54.658Z,56.87
2022-08-18T23:27:25.805Z,56.65
2022-08-18T23:29:57.093Z,56.60
2022-08-18T23:32:30.233Z,56.74
2022-08-18T23:35:03.379Z,56.58
2022-08-18T23:37:34.630Z,56.72
2022-08-18T23:40:06.619Z,56.77
2022-08-18T23:42:37.846Z,57.01
2022-08-18T23:45:10.179Z,57.15
2022-08-18T23:47:41.712Z,57.27
2022-08-18T23:50:13.427Z,57.19
2022-08-18T23:52:44.599Z,57.29
2022-08-18T23:55:18.800Z,57.48
2022-08-18T23:57:49.839Z,57.33
